sensor_id;sensor_type;location;lat;lon;timestamp;P1;durP1;ratioP1;P2;durP2;ratioP2
15451;SDS011;7827;53.594;9.938;2022-08-19T00:01:55;15.75;;;11.65;;
15451;SDS011;7827;53.594;9.938;2022-08-19T00:04:29;13.57;;;11.10;;
15451;SDS011;7827;53.594;9.938;2022-08-19T00:07:02;17.13;;;10.93;;
15451;SDS011;7827;53.594;9.938;2022-08-19T00:09:32;15.85;;;12.30;;
15451;SDS011;7827;53.594;9.938;2022-08-19T00:12:01;17.55;;;11.90;;
15451;SDS011;7827;53.594;9.938;2022-08-19T00:14:30;21.33;;;16.70;;
15451;SDS011;7827;53.594;9.938;2022-08-19T00:16:59;33.47;;;22.38;;
15451;SDS011;7827;53.594;9.938;2022-08-19T00:19:30;22.80;;;18.25;;
15451;SDS011;7827;53.594;9.938;2022-08-19T00:21:59;29.50;;;22.17;;
15451;SDS011;7827;53.594;9.938;2022-08-19T00:24:28;27.95;;;21.42;;
15451;SDS011;7827;53.594;9.938;2022-08-19T00:26:57;29.50;;;22.15;;
15451;SDS011;7827;53.594;9.938;2022-08-19T00:29:47;33.20;;;23.75;;
15451;SDS011;7827;53.594;9.938;2022-08-19T00:32:18;31.08;;;23.83;;
15451;SDS011;7827;53.594;9.938;2022-08-19T00:34:50;32.20;;;23.75;;
15451;SDS011;7827;53.594;9.938;2022-08-19T00:37:19;30.10;;;20.83;;
15451;SDS011;7827;53.594;9.938;2022-08-19T00:39:49;31.98;;;22.40;;
15451;SDS011;7827;53.594;9.938;2022-08-19T00:42:19;32.53;;;23.52;;
15451;SDS011;7827;53.594;9.938;2022-08-19T00:44:49;27.27;;;21.70;;
15451;SDS011;7827;53.594;9.938;2022-08-19T00:47:17;29.20;;;21.50;;
15451;SDS011;7827;53.594;9.938;2022-08-19T00:49:47;40.35;;;25.65;;
15451;SDS011;7827;53.594;9.938;2022-08-19T00:52:21;35.15;;;25.52;;
15451;SDS011;7827;53.594;9.938;2022-08-19T00:54:55;36.65;;;24.33;;
15451;SDS011;7827;53.594;9.938;2022-08-19T00:57:27;29.67;;;23.45;;
15451;SDS011;7827;53.594;9.938;2022-08-19T00:59:59;32.78;;;23.52;;
15451;SDS011;7827;53.594;9.938;2022-08-19T01:02:30;32.75;;;24.52;;
15451;SDS011;7827;53.594;9.938;2022-08-19T01:05:03;28.75;;;21.90;;
15451;SDS011;7827;53.594;9.938;2022-08-19T01:07:37;33.00;;;23.00;;
15451;SDS011;7827;53.594;9.938;2022-08-19T01:10:09;31.35;;;22.48;;
15451;SDS011;7827;53.594;9.938;2022-08-19T01:12:42;27.77;;;21.23;;
15451;SDS011;7827;53.594;9.938;2022-08-19T01:15:13;29.25;;;20.98;;
15451;SDS011;7827;53.594;9.938;2022-08-19T01:17:58;26.13;;;20.25;;
15451;SDS011;7827;53.594;9.938;2022-08-19T01:20:37;27.23;;;20.13;;
15451;SDS011;7827;53.594;9.938;2022-08-19T01:23:09;26.00;;;19.42;;
15451;SDS011;7827;53.594;9.938;2022-08-19T01:25:41;28.48;;;19.63;;
15451;SDS011;7827;53.594;9.938;2022-08-19T01:28:17;22.08;;;18.08;;
15451;SDS011;7827;53.594;9.938;2022-08-19T01:31:06;25.42;;;18.05;;
15451;SDS011;7827;53.594;9.938;2022-08-19T01:33:53;24.75;;;18.33;;
15451;SDS011;7827;53.594;9.938;2022-08-19T01:36:25;27.73;;;18.95;;
15451;SDS011;7827;53.594;9.938;2022-08-19T01:38:59;27.77;;;20.50;;
15451;SDS011;7827;53.594;9.938;2022-08-19T01:41:30;26.40;;;19.33;;
15451;SDS011;7827;53.594;9.938;2022-08-19T01:43:59;32.72;;;20.85;;
15451;SDS011;7827;53.594;9.938;2022-08-19T01:46:43;29.55;;;22.08;;
15451;SDS011;7827;53.594;9.938;2022-08-19T01:49:15;32.05;;;21.58;;
15451;SDS011;7827;53.594;9.938;2022-08-19T01:51:45;32.10;;;21.83;;
15451;SDS011;7827;53.594;9.938;2022-08-19T01:54:17;32.63;;;22.70;;
15451;SDS011;7827;53.594;9.938;2022-08-19T01:56:54;32.92;;;21.35;;
15451;SDS011;7827;53.594;9.938;2022-08-19T01:59:29;31.30;;;21.45;;
15451;SDS011;7827;53.594;9.938;2022-08-19T02:01:59;29.75;;;21.17;;
15451;SDS011;7827;53.594;9.938;2022-08-19T02:04:27;31.48;;;22.33;;
15451;SDS011;7827;53.594;9.938;2022-08-19T02:06:57;38.13;;;23.05;;
15451;SDS011;7827;53.594;9.938;2022-08-19T02:09:27;31.60;;;21.45;;
15451;SDS011;7827;53.594;9.938;2022-08-19T02:11:55;36.05;;;22.23;;
15451;SDS011;7827;53.594;9.938;2022-08-19T02:14:23;34.28;;;22.27;;
15451;SDS011;7827;53.594;9.938;2022-08-19T02:16:51;34.65;;;22.30;;
15451;SDS011;7827;53.594;9.938;2022-08-19T02:19:20;35.67;;;22.65;;
15451;SDS011;7827;53.594;9.938;2022-08-19T02:21:48;35.63;;;21.75;;
15451;SDS011;7827;53.594;9.938;2022-08-19T02:24:16;37.25;;;23.23;;
15451;SDS011;7827;53.594;9.938;2022-08-19T02:26:47;36.78;;;23.38;;
15451;SDS011;7827;53.594;9.938;2022-08-19T02:29:15;36.15;;;22.58;;
15451;SDS011;7827;53.594;9.938;2022-08-19T02:31:44;35.20;;;22.65;;
15451;SDS011;7827;53.594;9.938;2022-08-19T02:34:12;39.90;;;23.38;;
15451;SDS011;7827;53.594;9.938;2022-08-19T02:36:41;34.75;;;23.23;;
15451;SDS011;7827;53.594;9.938;2022-08-19T02:39:17;43.03;;;23.10;;
15451;SDS011;7827;53.594;9.938;2022-08-19T02:41:44;38.28;;;22.30;;
15451;SDS011;7827;53.594;9.938;2022-08-19T02:44:14;39.35;;;23.80;;
15451;SDS011;7827;53.594;9.938;2022-08-19T02:46:57;45.35;;;25.00;;
15451;SDS011;7827;53.594;9.938;2022-08-19T02:49:25;38.03;;;23.33;;
15451;SDS011;7827;53.594;9.938;2022-08-19T02:51:53;47.63;;;26.00;;
15451;SDS011;7827;53.594;9.938;2022-08-19T02:54:21;43.50;;;25.33;;
15451;SDS011;7827;53.594;9.938;2022-08-19T02:56:50;53.13;;;26.50;;
15451;SDS011;7827;53.594;9.938;2022-08-19T02:59:19;51.20;;;27.63;;
15451;SDS011;7827;53.594;9.938;2022-08-19T03:01:48;50.50;;;27.13;;
15451;SDS011;7827;53.594;9.938;2022-08-19T03:04:17;55.53;;;27.50;;
15451;SDS011;7827;53.594;9.938;2022-08-19T03:06:47;56.90;;;29.35;;
15451;SDS011;7827;53.594;9.938;2022-08-19T03:09:15;50.58;;;28.13;;
15451;SDS011;7827;53.594;9.938;2022-08-19T03:11:46;54.80;;;30.80;;
15451;SDS011;7827;53.594;9.938;2022-08-19T03:14:19;55.50;;;30.17;;
15451;SDS011;7827;53.594;9.938;2022-08-19T03:16:51;58.42;;;30.02;;
15451;SDS011;7827;53.594;9.938;2022-08-19T03:19:19;56.45;;;29.02;;
15451;SDS011;7827;53.594;9.938;2022-08-19T03:21:48;55.35;;;28.30;;
15451;SDS011;7827;53.594;9.938;2022-08-19T03:24:18;57.58;;;29.27;;
15451;SDS011;7827;53.594;9.938;2022-08-19T03:26:47;47.30;;;26.67;;
15451;SDS011;7827;53.594;9.938;2022-08-19T03:29:20;49.85;;;26.20;;
15451;SDS011;7827;53.594;9.938;2022-08-19T03:31:57;51.03;;;25.27;;
15451;SDS011;7827;53.594;9.938;2022-08-19T03:34:29;44.75;;;24.10;;
15451;SDS011;7827;53.594;9.938;2022-08-19T03:37:03;44.35;;;24.58;;
15451;SDS011;7827;53.594;9.938;2022-08-19T03:39:35;46.05;;;23.50;;
15451;SDS011;7827;53.594;9.938;2022-08-19T03:42:05;45.47;;;23.15;;
15451;SDS011;7827;53.594;9.938;2022-08-19T03:44:55;40.25;;;22.58;;
15451;SDS011;7827;53.594;9.938;2022-08-19T03:47:24;37.85;;;21.35;;
15451;SDS011;7827;53.594;9.938;2022-08-19T03:49:52;42.90;;;22.48;;
15451;SDS011;7827;53.594;9.938;2022-08-19T03:52:21;46.03;;;22.33;;
15451;SDS011;7827;53.594;9.938;2022-08-19T03:54:50;36.90;;;20.35;;
15451;SDS011;7827;53.594;9.938;2022-08-19T03:57:18;40.58;;;22.85;;
15451;SDS011;7827;53.594;9.938;2022-08-19T03:59:58;41.50;;;21.60;;
15451;SDS011;7827;53.594;9.938;2022-08-19T04:02:38;42.88;;;24.27;;
15451;SDS011;7827;53.594;9.938;2022-08-19T04:05:21;43.13;;;23.38;;
15451;SDS011;7827;53.594;9.938;2022-08-19T04:07:53;48.95;;;24.10;;
15451;SDS011;7827;53.594;9.938;2022-08-19T04:10:23;53.75;;;25.92;;
15451;SDS011;7827;53.594;9.938;2022-08-19T04:12:52;55.28;;;24.65;;
15451;SDS011;7827;53.594;9.938;2022-08-19T04:15:21;50.80;;;26.30;;
15451;SDS011;7827;53.594;9.938;2022-08-19T04:17:50;47.17;;;25.52;;
15451;SDS011;7827;53.594;9.938;2022-08-19T04:20:18;49.38;;;26.25;;
15451;SDS011;7827;53.594;9.938;2022-08-19T04:22:46;53.53;;;27.85;;
15451;SDS011;7827;53.594;9.938;2022-08-19T04:25:15;44.65;;;24.75;;
15451;SDS011;7827;53.594;9.938;2022-08-19T04:27:43;46.50;;;26.42;;
15451;SDS011;7827;53.594;9.938;2022-08-19T04:30:13;45.95;;;26.55;;
15451;SDS011;7827;53.594;9.938;2022-08-19T04:32:43;45.45;;;24.20;;
15451;SDS011;7827;53.594;9.938;2022-08-19T04:35:12;50.53;;;28.08;;
15451;SDS011;7827;53.594;9.938;2022-08-19T04:37:43;54.58;;;26.95;;
15451;SDS011;7827;53.594;9.938;2022-08-19T04:40:11;49.10;;;28.67;;
15451;SDS011;7827;53.594;9.938;2022-08-19T04:42:57;50.60;;;27.65;;
15451;SDS011;7827;53.594;9.938;2022-08-19T04:45:25;54.00;;;28.58;;
15451;SDS011;7827;53.594;9.938;2022-08-19T04:48:05;48.20;;;29.23;;
15451;SDS011;7827;53.594;9.938;2022-08-19T04:50:53;53.22;;;29.83;;
15451;SDS011;7827;53.594;9.938;2022-08-19T04:53:24;50.10;;;28.75;;
15451;SDS011;7827;53.594;9.938;2022-08-19T04:55:55;53.88;;;30.48;;
15451;SDS011;7827;53.594;9.938;2022-08-19T04:58:24;46.08;;;27.75;;
15451;SDS011;7827;53.594;9.938;2022-08-19T05:00:55;47.50;;;25.58;;
15451;SDS011;7827;53.594;9.938;2022-08-19T05:03:27;38.42;;;24.27;;
15451;SDS011;7827;53.594;9.938;2022-08-19T05:06:03;29.15;;;19.75;;
15451;SDS011;7827;53.594;9.938;2022-08-19T05:08:34;35.20;;;20.33;;
15451;SDS011;7827;53.594;9.938;2022-08-19T05:11:07;27.25;;;19.00;;
15451;SDS011;7827;53.594;9.938;2022-08-19T05:13:39;27.58;;;18.98;;
15451;SDS011;7827;53.594;9.938;2022-08-19T05:16:10;29.67;;;18.42;;
15451;SDS011;7827;53.594;9.938;2022-08-19T05:18:41;26.73;;;16.52;;
15451;SDS011;7827;53.594;9.938;2022-08-19T05:21:28;24.55;;;16.20;;
15451;SDS011;7827;53.594;9.938;2022-08-19T05:24:15;25.42;;;17.65;;
15451;SDS011;7827;53.594;9.938;2022-08-19T05:26:46;30.05;;;17.55;;
15451;SDS011;7827;53.594;9.938;2022-08-19T05:29:18;24.23;;;16.75;;
15451;SDS011;7827;53.594;9.938;2022-08-19T05:31:48;25.95;;;16.73;;
15451;SDS011;7827;53.594;9.938;2022-08-19T05:34:20;23.00;;;16.98;;
15451;SDS011;7827;53.594;9.938;2022-08-19T05:36:52;23.75;;;15.52;;
15451;SDS011;7827;53.594;9.938;2022-08-19T05:39:24;21.38;;;15.13;;
15451;SDS011;7827;53.594;9.938;2022-08-19T05:41:56;23.83;;;16.75;;
15451;SDS011;7827;53.594;9.938;2022-08-19T05:44:27;22.80;;;15.52;;
15451;SDS011;7827;53.594;9.938;2022-08-19T05:47:00;28.10;;;16.75;;
15451;SDS011;7827;53.594;9.938;2022-08-19T05:49:32;22.10;;;15.63;;
15451;SDS011;7827;53.594;9.938;2022-08-19T05:52:02;20.95;;;15.60;;
15451;SDS011;7827;53.594;9.938;2022-08-19T05:54:32;21.38;;;15.38;;
15451;SDS011;7827;53.594;9.938;2022-08-19T05:57:02;20.13;;;14.02;;
15451;SDS011;7827;53.594;9.938;2022-08-19T05:59:30;21.92;;;15.80;;
15451;SDS011;7827;53.594;9.938;2022-08-19T06:02:00;25.52;;;16.52;;
15451;SDS011;7827;53.594;9.938;2022-08-19T06:04:32;23.70;;;13.57;;
15451;SDS011;7827;53.594;9.938;2022-08-19T06:07:01;24.42;;;17.02;;
15451;SDS011;7827;53.594;9.938;2022-08-19T06:09:38;24.25;;;16.27;;
15451;SDS011;7827;53.594;9.938;2022-08-19T06:12:24;24.70;;;16.20;;
15451;SDS011;7827;53.594;9.938;2022-08-19T06:14:55;25.55;;;16.73;;
15451;SDS011;7827;53.594;9.938;2022-08-19T06:17:27;29.85;;;18.25;;
15451;SDS011;7827;53.594;9.938;2022-08-19T06:19:58;32.78;;;17.10;;
15451;SDS011;7827;53.594;9.938;2022-08-19T06:22:27;25.00;;;17.10;;
15451;SDS011;7827;53.594;9.938;2022-08-19T06:24:55;26.20;;;17.98;;
15451;SDS011;7827;53.594;9.938;2022-08-19T06:27:24;29.00;;;17.42;;
15451;SDS011;7827;53.594;9.938;2022-08-19T06:29:52;31.65;;;17.88;;
15451;SDS011;7827;53.594;9.938;2022-08-19T06:32:20;29.70;;;18.35;;
15451;SDS011;7827;53.594;9.938;2022-08-19T06:34:48;24.52;;;16.63;;
15451;SDS011;7827;53.594;9.938;2022-08-19T06:37:18;30.20;;;18.10;;
15451;SDS011;7827;53.594;9.938;2022-08-19T06:39:48;30.70;;;17.90;;
15451;SDS011;7827;53.594;9.938;2022-08-19T06:42:17;29.73;;;17.98;;
15451;SDS011;7827;53.594;9.938;2022-08-19T06:44:49;24.95;;;18.60;;
15451;SDS011;7827;53.594;9.938;2022-08-19T06:47:19;28.73;;;18.45;;
15451;SDS011;7827;53.594;9.938;2022-08-19T06:49:54;27.30;;;18.65;;
15451;SDS011;7827;53.594;9.938;2022-08-19T06:52:31;34.60;;;20.95;;
15451;SDS011;7827;53.594;9.938;2022-08-19T06:55:04;28.85;;;17.02;;
15451;SDS011;7827;53.594;9.938;2022-08-19T06:57:34;28.38;;;17.52;;
15451;SDS011;7827;53.594;9.938;2022-08-19T07:00:03;27.33;;;18.45;;
15451;SDS011;7827;53.594;9.938;2022-08-19T07:02:38;27.58;;;16.15;;
15451;SDS011;7827;53.594;9.938;2022-08-19T07:05:13;27.70;;;16.15;;
15451;SDS011;7827;53.594;9.938;2022-08-19T07:07:43;22.25;;;16.42;;
15451;SDS011;7827;53.594;9.938;2022-08-19T07:10:13;21.85;;;16.05;;
15451;SDS011;7827;53.594;9.938;2022-08-19T07:12:42;29.90;;;15.65;;
15451;SDS011;7827;53.594;9.938;2022-08-19T07:15:11;21.63;;;15.65;;
15451;SDS011;7827;53.594;9.938;2022-08-19T07:17:41;19.60;;;14.73;;
15451;SDS011;7827;53.594;9.938;2022-08-19T07:20:10;24.58;;;15.27;;
15451;SDS011;7827;53.594;9.938;2022-08-19T07:22:39;24.55;;;13.82;;
15451;SDS011;7827;53.594;9.938;2022-08-19T07:25:09;18.55;;;13.18;;
15451;SDS011;7827;53.594;9.938;2022-08-19T07:27:39;17.13;;;12.38;;
15451;SDS011;7827;53.594;9.938;2022-08-19T07:30:12;22.30;;;12.82;;
15451;SDS011;7827;53.594;9.938;2022-08-19T07:32:40;15.25;;;10.95;;
15451;SDS011;7827;53.594;9.938;2022-08-19T07:35:09;18.38;;;12.32;;
15451;SDS011;7827;53.594;9.938;2022-08-19T07:37:37;14.25;;;11.32;;
15451;SDS011;7827;53.594;9.938;2022-08-19T07:40:12;16.88;;;11.10;;
15451;SDS011;7827;53.594;9.938;2022-08-19T07:42:40;19.63;;;10.82;;
15451;SDS011;7827;53.594;9.938;2022-08-19T07:45:10;12.02;;;9.68;;
15451;SDS011;7827;53.594;9.938;2022-08-19T07:47:39;13.77;;;9.98;;
15451;SDS011;7827;53.594;9.938;2022-08-19T07:50:13;12.85;;;10.10;;
15451;SDS011;7827;53.594;9.938;2022-08-19T07:52:47;12.10;;;9.70;;
15451;SDS011;7827;53.594;9.938;2022-08-19T07:55:18;11.82;;;9.93;;
15451;SDS011;7827;53.594;9.938;2022-08-19T07:58:08;13.27;;;9.52;;
15451;SDS011;7827;53.594;9.938;2022-08-19T08:00:38;12.80;;;10.07;;
15451;SDS011;7827;53.594;9.938;2022-08-19T08:03:08;13.35;;;9.57;;
15451;SDS011;7827;53.594;9.938;2022-08-19T08:05:38;12.25;;;9.55;;
15451;SDS011;7827;53.594;9.938;2022-08-19T08:08:39;13.65;;;10.10;;
15451;SDS011;7827;53.594;9.938;2022-08-19T08:11:26;12.80;;;10.48;;
15451;SDS011;7827;53.594;9.938;2022-08-19T08:13:55;13.25;;;10.10;;
15451;SDS011;7827;53.594;9.938;2022-08-19T08:16:30;15.50;;;11.50;;
15451;SDS011;7827;53.594;9.938;2022-08-19T08:19:12;15.52;;;10.75;;
15451;SDS011;7827;53.594;9.938;2022-08-19T08:21:51;16.65;;;11.98;;
15451;SDS011;7827;53.594;9.938;2022-08-19T08:24:21;16.98;;;11.55;;
15451;SDS011;7827;53.594;9.938;2022-08-19T08:26:56;16.42;;;11.65;;
15451;SDS011;7827;53.594;9.938;2022-08-19T08:29:27;17.35;;;11.88;;
15451;SDS011;7827;53.594;9.938;2022-08-19T08:32:00;18.23;;;13.70;;
15451;SDS011;7827;53.594;9.938;2022-08-19T08:34:40;19.27;;;13.30;;
15451;SDS011;7827;53.594;9.938;2022-08-19T08:37:08;20.30;;;14.10;;
15451;SDS011;7827;53.594;9.938;2022-08-19T08:39:37;22.65;;;14.63;;
15451;SDS011;7827;53.594;9.938;2022-08-19T08:42:10;19.17;;;14.85;;
15451;SDS011;7827;53.594;9.938;2022-08-19T08:44:48;24.77;;;16.80;;
15451;SDS011;7827;53.594;9.938;2022-08-19T08:47:30;27.40;;;17.63;;
15451;SDS011;7827;53.594;9.938;2022-08-19T08:50:08;20.13;;;16.35;;
15451;SDS011;7827;53.594;9.938;2022-08-19T08:52:46;27.42;;;18.42;;
15451;SDS011;7827;53.594;9.938;2022-08-19T08:55:21;21.02;;;14.45;;
15451;SDS011;7827;53.594;9.938;2022-08-19T08:58:05;22.13;;;16.25;;
15451;SDS011;7827;53.594;9.938;2022-08-19T09:00:42;21.90;;;15.45;;
15451;SDS011;7827;53.594;9.938;2022-08-19T09:03:16;21.40;;;14.43;;
15451;SDS011;7827;53.594;9.938;2022-08-19T09:05:51;20.23;;;13.02;;
15451;SDS011;7827;53.594;9.938;2022-08-19T09:08:33;22.25;;;12.63;;
15451;SDS011;7827;53.594;9.938;2022-08-19T09:11:24;23.00;;;13.73;;
15451;SDS011;7827;53.594;9.938;2022-08-19T09:14:22;18.15;;;12.55;;
15451;SDS011;7827;53.594;9.938;2022-08-19T09:17:17;21.27;;;14.15;;
15451;SDS011;7827;53.594;9.938;2022-08-19T09:19:56;19.25;;;13.95;;
15451;SDS011;7827;53.594;9.938;2022-08-19T09:22:30;20.38;;;13.98;;
15451;SDS011;7827;53.594;9.938;2022-08-19T09:24:59;18.02;;;11.98;;
15451;SDS011;7827;53.594;9.938;2022-08-19T09:27:28;22.83;;;13.98;;
15451;SDS011;7827;53.594;9.938;2022-08-19T09:30:11;20.65;;;12.90;;
15451;SDS011;7827;53.594;9.938;2022-08-19T09:32:43;20.52;;;14.32;;
15451;SDS011;7827;53.594;9.938;2022-08-19T09:35:18;22.45;;;13.32;;
15451;SDS011;7827;53.594;9.938;2022-08-19T09:37:50;17.80;;;13.73;;
15451;SDS011;7827;53.594;9.938;2022-08-19T09:40:25;24.45;;;13.57;;
15451;SDS011;7827;53.594;9.938;2022-08-19T09:42:56;17.80;;;13.43;;
15451;SDS011;7827;53.594;9.938;2022-08-19T09:45:39;17.40;;;13.95;;
15451;SDS011;7827;53.594;9.938;2022-08-19T09:48:08;22.02;;;12.90;;
15451;SDS011;7827;53.594;9.938;2022-08-19T09:50:37;22.98;;;15.07;;
15451;SDS011;7827;53.594;9.938;2022-08-19T09:53:17;24.23;;;16.02;;
15451;SDS011;7827;53.594;9.938;2022-08-19T09:55:51;19.50;;;12.98;;
15451;SDS011;7827;53.594;9.938;2022-08-19T09:58:19;17.38;;;13.23;;
15451;SDS011;7827;53.594;9.938;2022-08-19T10:00:53;24.35;;;15.07;;
15451;SDS011;7827;53.594;9.938;2022-08-19T10:03:22;22.63;;;13.75;;
15451;SDS011;7827;53.594;9.938;2022-08-19T10:05:56;23.00;;;17.02;;
15451;SDS011;7827;53.594;9.938;2022-08-19T10:08:28;22.35;;;15.57;;
15451;SDS011;7827;53.594;9.938;2022-08-19T10:10:59;20.77;;;14.88;;
15451;SDS011;7827;53.594;9.938;2022-08-19T10:13:50;25.42;;;16.83;;
15451;SDS011;7827;53.594;9.938;2022-08-19T10:16:21;26.92;;;19.05;;
15451;SDS011;7827;53.594;9.938;2022-08-19T10:18:56;25.33;;;17.55;;
15451;SDS011;7827;53.594;9.938;2022-08-19T10:21:30;24.73;;;17.08;;
15451;SDS011;7827;53.594;9.938;2022-08-19T10:24:01;27.27;;;17.88;;
15451;SDS011;7827;53.594;9.938;2022-08-19T10:26:35;25.10;;;18.48;;
15451;SDS011;7827;53.594;9.938;2022-08-19T10:29:08;29.25;;;19.45;;
15451;SDS011;7827;53.594;9.938;2022-08-19T10:31:39;27.50;;;18.55;;
15451;SDS011;7827;53.594;9.938;2022-08-19T10:34:27;25.77;;;18.55;;
15451;SDS011;7827;53.594;9.938;2022-08-19T10:36:57;28.90;;;18.88;;
15451;SDS011;7827;53.594;9.938;2022-08-19T10:39:28;25.60;;;19.38;;
15451;SDS011;7827;53.594;9.938;2022-08-19T10:42:08;27.15;;;20.08;;
15451;SDS011;7827;53.594;9.938;2022-08-19T10:44:39;28.17;;;19.90;;
15451;SDS011;7827;53.594;9.938;2022-08-19T10:47:09;32.83;;;19.90;;
15451;SDS011;7827;53.594;9.938;2022-08-19T10:49:50;34.08;;;20.83;;
15451;SDS011;7827;53.594;9.938;2022-08-19T10:52:38;29.98;;;21.30;;
15451;SDS011;7827;53.594;9.938;2022-08-19T10:55:16;28.77;;;19.45;;
15451;SDS011;7827;53.594;9.938;2022-08-19T10:58:09;24.05;;;17.67;;
15451;SDS011;7827;53.594;9.938;2022-08-19T11:00:39;35.20;;;18.33;;
15451;SDS011;7827;53.594;9.938;2022-08-19T11:03:10;26.00;;;18.20;;
15451;SDS011;7827;53.594;9.938;2022-08-19T11:05:39;27.70;;;18.67;;
15451;SDS011;7827;53.594;9.938;2022-08-19T11:08:07;25.85;;;19.25;;
15451;SDS011;7827;53.594;9.938;2022-08-19T11:10:50;29.65;;;18.98;;
15451;SDS011;7827;53.594;9.938;2022-08-19T11:13:21;22.70;;;14.93;;
15451;SDS011;7827;53.594;9.938;2022-08-19T11:15:57;23.75;;;15.27;;
15451;SDS011;7827;53.594;9.938;2022-08-19T11:18:34;22.77;;;16.77;;
15451;SDS011;7827;53.594;9.938;2022-08-19T11:21:05;24.95;;;16.20;;
15451;SDS011;7827;53.594;9.938;2022-08-19T11:23:39;21.75;;;16.17;;
15451;SDS011;7827;53.594;9.938;2022-08-19T11:26:07;20.85;;;15.88;;
15451;SDS011;7827;53.594;9.938;2022-08-19T11:28:36;19.45;;;15.93;;
15451;SDS011;7827;53.594;9.938;2022-08-19T11:31:09;24.88;;;16.15;;
15451;SDS011;7827;53.594;9.938;2022-08-19T11:33:40;19.33;;;15.52;;
15451;SDS011;7827;53.594;9.938;2022-08-19T11:36:13;22.02;;;15.90;;
15451;SDS011;7827;53.594;9.938;2022-08-19T11:38:42;21.02;;;15.73;;
15451;SDS011;7827;53.594;9.938;2022-08-19T11:41:14;17.70;;;13.68;;
15451;SDS011;7827;53.594;9.938;2022-08-19T11:43:45;22.60;;;14.77;;
15451;SDS011;7827;53.594;9.938;2022-08-19T11:46:14;20.17;;;14.75;;
15451;SDS011;7827;53.594;9.938;2022-08-19T11:48:45;18.20;;;14.45;;
15451;SDS011;7827;53.594;9.938;2022-08-19T11:51:15;23.10;;;15.70;;
15451;SDS011;7827;53.594;9.938;2022-08-19T11:53:48;17.98;;;14.63;;
15451;SDS011;7827;53.594;9.938;2022-08-19T11:56:17;20.58;;;15.40;;
15451;SDS011;7827;53.594;9.938;2022-08-19T11:58:47;18.55;;;13.63;;
15451;SDS011;7827;53.594;9.938;2022-08-19T12:01:17;17.67;;;13.93;;
15451;SDS011;7827;53.594;9.938;2022-08-19T12:03:49;21.88;;;14.80;;
15451;SDS011;7827;53.594;9.938;2022-08-19T12:06:20;18.25;;;15.52;;
15451;SDS011;7827;53.594;9.938;2022-08-19T12:08:54;19.70;;;14.23;;
15451;SDS011;7827;53.594;9.938;2022-08-19T12:11:24;14.55;;;13.05;;
15451;SDS011;7827;53.594;9.938;2022-08-19T12:13:54;16.02;;;12.90;;
15451;SDS011;7827;53.594;9.938;2022-08-19T12:16:24;20.90;;;15.70;;
15451;SDS011;7827;53.594;9.938;2022-08-19T12:18:56;17.15;;;14.38;;
15451;SDS011;7827;53.594;9.938;2022-08-19T12:21:30;18.10;;;14.55;;
15451;SDS011;7827;53.594;9.938;2022-08-19T12:24:03;15.52;;;13.27;;
15451;SDS011;7827;53.594;9.938;2022-08-19T12:26:34;17.33;;;13.48;;
15451;SDS011;7827;53.594;9.938;2022-08-19T12:29:19;15.30;;;13.07;;
15451;SDS011;7827;53.594;9.938;2022-08-19T12:31:49;17.55;;;12.00;;
15451;SDS011;7827;53.594;9.938;2022-08-19T12:34:19;19.58;;;14.20;;
15451;SDS011;7827;53.594;9.938;2022-08-19T12:36:47;16.27;;;13.23;;
15451;SDS011;7827;53.594;9.938;2022-08-19T12:39:16;17.48;;;12.27;;
15451;SDS011;7827;53.594;9.938;2022-08-19T12:41:45;17.05;;;14.40;;
15451;SDS011;7827;53.594;9.938;2022-08-19T12:44:20;16.75;;;12.95;;
15451;SDS011;7827;53.594;9.938;2022-08-19T12:46:57;16.30;;;12.80;;
15451;SDS011;7827;53.594;9.938;2022-08-19T12:49:28;14.15;;;12.70;;
15451;SDS011;7827;53.594;9.938;2022-08-19T12:52:19;18.05;;;14.68;;
15451;SDS011;7827;53.594;9.938;2022-08-19T12:54:49;16.25;;;13.65;;
15451;SDS011;7827;53.594;9.938;2022-08-19T12:57:21;15.75;;;13.45;;
15451;SDS011;7827;53.594;9.938;2022-08-19T12:59:59;18.17;;;14.57;;
15451;SDS011;7827;53.594;9.938;2022-08-19T13:02:31;16.55;;;13.80;;
15451;SDS011;7827;53.594;9.938;2022-08-19T13:05:07;16.15;;;13.73;;
15451;SDS011;7827;53.594;9.938;2022-08-19T13:07:38;16.75;;;14.07;;
15451;SDS011;7827;53.594;9.938;2022-08-19T13:10:10;15.75;;;13.38;;
15451;SDS011;7827;53.594;9.938;2022-08-19T13:12:42;16.77;;;14.38;;
15451;SDS011;7827;53.594;9.938;2022-08-19T13:15:12;15.85;;;14.15;;
15451;SDS011;7827;53.594;9.938;2022-08-19T13:17:50;15.80;;;14.10;;
15451;SDS011;7827;53.594;9.938;2022-08-19T13:20:22;15.95;;;13.90;;
15451;SDS011;7827;53.594;9.938;2022-08-19T13:22:51;18.13;;;14.57;;
15451;SDS011;7827;53.594;9.938;2022-08-19T13:25:20;15.38;;;13.88;;
15451;SDS011;7827;53.594;9.938;2022-08-19T13:27:49;18.45;;;14.13;;
15451;SDS011;7827;53.594;9.938;2022-08-19T13:30:19;16.92;;;14.85;;
15451;SDS011;7827;53.594;9.938;2022-08-19T13:33:05;15.15;;;13.13;;
15451;SDS011;7827;53.594;9.938;2022-08-19T13:35:44;15.70;;;13.60;;
15451;SDS011;7827;53.594;9.938;2022-08-19T13:38:17;15.65;;;13.93;;
15451;SDS011;7827;53.594;9.938;2022-08-19T13:40:48;16.02;;;12.85;;
15451;SDS011;7827;53.594;9.938;2022-08-19T13:43:19;15.43;;;13.82;;
15451;SDS011;7827;53.594;9.938;2022-08-19T13:45:51;13.73;;;12.07;;
15451;SDS011;7827;53.594;9.938;2022-08-19T13:48:23;15.68;;;14.18;;
15451;SDS011;7827;53.594;9.938;2022-08-19T13:50:55;15.40;;;13.38;;
15451;SDS011;7827;53.594;9.938;2022-08-19T13:53:23;15.10;;;13.52;;
15451;SDS011;7827;53.594;9.938;2022-08-19T13:55:51;16.48;;;14.20;;
15451;SDS011;7827;53.594;9.938;2022-08-19T13:58:20;17.33;;;13.88;;
15451;SDS011;7827;53.594;9.938;2022-08-19T14:00:49;15.90;;;13.52;;
15451;SDS011;7827;53.594;9.938;2022-08-19T14:03:18;18.17;;;15.43;;
15451;SDS011;7827;53.594;9.938;2022-08-19T14:05:46;16.55;;;14.45;;
15451;SDS011;7827;53.594;9.938;2022-08-19T14:08:16;16.77;;;15.05;;
15451;SDS011;7827;53.594;9.938;2022-08-19T14:10:45;16.90;;;14.15;;
15451;SDS011;7827;53.594;9.938;2022-08-19T14:13:15;15.63;;;14.07;;
15451;SDS011;7827;53.594;9.938;2022-08-19T14:15:47;18.17;;;16.25;;
15451;SDS011;7827;53.594;9.938;2022-08-19T14:18:17;17.20;;;15.10;;
15451;SDS011;7827;53.594;9.938;2022-08-19T14:20:46;16.85;;;15.05;;
15451;SDS011;7827;53.594;9.938;2022-08-19T14:23:14;17.90;;;15.20;;
15451;SDS011;7827;53.594;9.938;2022-08-19T14:25:44;17.20;;;15.18;;
15451;SDS011;7827;53.594;9.938;2022-08-19T14:28:12;18.60;;;16.15;;
15451;SDS011;7827;53.594;9.938;2022-08-19T14:30:41;23.00;;;18.23;;
15451;SDS011;7827;53.594;9.938;2022-08-19T14:33:10;20.63;;;17.48;;
15451;SDS011;7827;53.594;9.938;2022-08-19T14:35:40;18.65;;;16.70;;
15451;SDS011;7827;53.594;9.938;2022-08-19T14:38:14;18.80;;;16.77;;
15451;SDS011;7827;53.594;9.938;2022-08-19T14:41:05;16.58;;;14.88;;
15451;SDS011;7827;53.594;9.938;2022-08-19T14:43:39;17.17;;;15.23;;
15451;SDS011;7827;53.594;9.938;2022-08-19T14:46:07;16.40;;;14.25;;
15451;SDS011;7827;53.594;9.938;2022-08-19T14:48:36;18.25;;;15.73;;
15451;SDS011;7827;53.594;9.938;2022-08-19T14:51:07;15.60;;;13.93;;
15451;SDS011;7827;53.594;9.938;2022-08-19T14:53:37;16.38;;;14.68;;
15451;SDS011;7827;53.594;9.938;2022-08-19T14:56:07;16.52;;;13.80;;
15451;SDS011;7827;53.594;9.938;2022-08-19T14:58:38;16.80;;;15.02;;
15451;SDS011;7827;53.594;9.938;2022-08-19T15:01:08;16.70;;;14.50;;
15451;SDS011;7827;53.594;9.938;2022-08-19T15:03:38;16.70;;;13.75;;
15451;SDS011;7827;53.594;9.938;2022-08-19T15:06:07;16.55;;;13.95;;
15451;SDS011;7827;53.594;9.938;2022-08-19T15:08:40;15.43;;;13.82;;